createdAt,value
2023-02-04T00:01:58.498Z,97.99
2023-02-04T00:07:00.151Z,98.14
2023-02-04T00:12:01.797Z,98.02
2023-02-04T00:17:03.468Z,98.45
2023-02-04T00:22:05.256Z,98.82
2023-02-04T00:27:07.554Z,99.05
2023-02-04T00:32:09.344Z,99.17
2023-02-04T00:37:11.088Z,98.97
2023-02-04T00:42:13.062Z,98.69
2023-02-04T00:47:14.735Z,98.87
2023-02-04T00:52:16.334Z,99.14
2023-02-04T00:57:19.777Z,98.58
2023-02-04T01:02:21.418Z,98.35
2023-02-04T01:07:23.327Z,97.86
2023-02-04T01:12:27.300Z,97.40
2023-02-04T01:17:29.189Z,97.24
2023-02-04T01:22:30.889Z,96.39
2023-02-04T01:27:32.597Z,96.65
2023-02-04T01:32:34.431Z,96.82
2023-02-04T01:37:36.152Z,97.21
2023-02-04T01:42:38.729Z,97.57
2023-02-04T01:47:40.671Z,98.25
2023-02-04T01:52:44.245Z,98.14
2023-02-04T01:57:46.594Z,98.76
2023-02-04T02:02:51.151Z,99.16
2023-02-04T02:07:57.197Z,99.15
2023-02-04T02:12:59.408Z,99.30
2023-02-04T02:18:01.278Z,99.55
2023-02-04T02:23:18.045Z,99.25
2023-02-04T02:28:22.142Z,99.80
2023-02-04T02:33:25.450Z,99.77
2023-02-04T02:38:27.186Z,99.18
2023-02-04T02:43:30.170Z,99.63
2023-02-04T02:48:32.670Z,99.36
2023-02-04T02:53:34.626Z,99.04
2023-02-04T02:58:36.538Z,99.20
2023-02-04T03:03:56.605Z,98.99
2023-02-04T03:08:58.539Z,99.31
2023-02-04T03:14:03.789Z,99.27
2023-02-04T03:19:07.608Z,99.08
2023-02-04T03:24:09.683Z,99.23
2023-02-04T03:29:12.715Z,99.53
2023-02-04T03:34:14.426Z,98.93
2023-02-04T03:39:16.040Z,99.12
2023-02-04T03:44:18.764Z,99.35
2023-02-04T03:49:20.335Z,98.87
2023-02-04T03:54:21.930Z,99.37
2023-02-04T03:59:40.759Z,99.60
2023-02-04T04:04:42.457Z,99.38
2023-02-04T04:09:44.102Z,99.71
2023-02-04T04:14:45.776Z,99.38
2023-02-04T04:19:49.457Z,99.55
2023-02-04T04:24:51.140Z,99.62
2023-02-04T04:29:52.838Z,99.71
2023-02-04T04:34:55.592Z,100.00
2023-02-04T04:39:57.262Z,99.79
2023-02-04T04:44:58.880Z,99.62
2023-02-04T04:50:00.511Z,100.00
2023-02-04T04:55:02.128Z,100.00
2023-02-04T05:00:05.443Z,99.87
2023-02-04T05:05:07.226Z,100.00
2023-02-04T05:10:09.511Z,100.00
2023-02-04T05:15:11.399Z,100.00
2023-02-04T05:20:13.066Z,100.00
2023-02-04T05:25:16.721Z,100.00
2023-02-04T05:30:18.443Z,100.00
2023-02-04T05:35:20.256Z,100.00
2023-02-04T05:40:21.993Z,100.00
2023-02-04T05:45:23.718Z,100.00
2023-02-04T05:50:25.523Z,100.00
2023-02-04T05:55:42.956Z,100.00
2023-02-04T06:00:44.595Z,100.00
2023-02-04T06:05:46.229Z,100.00
2023-02-04T06:10:47.877Z,100.00
2023-02-04T06:15:49.545Z,100.00
2023-02-04T06:20:51.180Z,100.00
2023-02-04T06:25:52.854Z,100.00
2023-02-04T06:30:54.600Z,100.00
2023-02-04T06:35:56.350Z,100.00
2023-02-04T06:40:58.034Z,100.00
2023-02-04T06:45:59.666Z,100.00
2023-02-04T06:51:01.369Z,100.00
2023-02-04T06:56:03.141Z,100.00
2023-02-04T07:01:06.345Z,100.00
2023-02-04T07:06:08.185Z,100.00
2023-02-04T07:11:10.007Z,100.00
2023-02-04T07:16:11.718Z,100.00
2023-02-04T07:21:13.356Z,100.00
2023-02-04T07:26:14.951Z,100.00
2023-02-04T07:31:16.753Z,100.00
2023-02-04T07:36:18.479Z,100.00
2023-02-04T07:41:21.108Z,100.00
2023-02-04T07:46:22.754Z,100.00
2023-02-04T07:51:24.415Z,100.00
2023-02-04T07:56:26.070Z,100.00
2023-02-04T08:01:27.730Z,100.00
2023-02-04T08:06:29.412Z,100.00
2023-02-04T08:11:31.276Z,100.00
2023-02-04T08:16:32.878Z,100.00
2023-02-04T08:21:34.525Z,100.00
2023-02-04T08:26:36.305Z,100.00
2023-02-04T08:31:40.794Z,100.00
2023-02-04T08:36:44.753Z,100.00
2023-02-04T08:41:46.417Z,100.00
2023-02-04T08:46:48.143Z,100.00
2023-02-04T08:51:49.819Z,100.00
2023-02-04T08:56:51.502Z,100.00
2023-02-04T09:01:53.292Z,100.00
2023-02-04T09:06:55.111Z,100.00
2023-02-04T09:11:56.789Z,100.00
2023-02-04T09:16:58.462Z,100.00
2023-02-04T09:22:00.212Z,100.00
2023-02-04T09:27:01.821Z,100.00
2023-02-04T09:32:03.577Z,100.00
2023-02-04T09:37:05.254Z,100.00
2023-02-04T09:42:10.521Z,100.00
2023-02-04T09:47:15.495Z,100.00
2023-02-04T09:52:18.496Z,100.00
2023-02-04T09:57:21.301Z,100.00
2023-02-04T10:02:26.823Z,100.00
2023-02-04T10:07:29.925Z,100.00
2023-02-04T10:12:32.328Z,100.00
2023-02-04T10:17:33.969Z,100.00
2023-02-04T10:22:36.833Z,100.00
2023-02-04T10:27:48.476Z,100.00
2023-02-04T10:32:50.686Z,100.00
2023-02-04T10:38:06.891Z,100.00
2023-02-04T10:43:17.079Z,100.00
2023-02-04T10:48:19.949Z,100.00
2023-02-04T10:53:41.812Z,100.00
2023-02-04T10:58:43.966Z,100.00
2023-02-04T11:03:48.167Z,100.00
2023-02-04T11:08:53.522Z,100.00
2023-02-04T11:13:55.757Z,100.00
2023-02-04T11:19:06.332Z,99.36
2023-02-04T11:24:16.570Z,97.60
2023-02-04T11:29:34.867Z,98.26
2023-02-04T11:34:49.053Z,97.85
2023-02-04T11:39:51.016Z,97.82
2023-02-04T11:45:13.392Z,96.12
2023-02-04T11:50:25.005Z,95.72
2023-02-04T11:55:28.738Z,95.47
2023-02-04T12:00:32.770Z,96.10
2023-02-04T12:05:45.019Z,94.57
2023-02-04T12:10:51.765Z,94.54
2023-02-04T12:16:05.370Z,94.61
2023-02-04T12:21:14.490Z,95.31
2023-02-04T12:26:16.150Z,96.07
2023-02-04T12:31:25.933Z,98.47
2023-02-04T12:36:29.692Z,100.00
2023-02-04T12:41:31.402Z,100.00
2023-02-04T12:46:33.392Z,100.00
2023-02-04T12:51:35.050Z,100.00
2023-02-04T12:56:36.689Z,100.00
2023-02-04T13:01:38.347Z,100.00
2023-02-04T13:06:40.038Z,100.00
2023-02-04T13:11:41.812Z,100.00
2023-02-04T13:16:43.425Z,99.66
2023-02-04T13:21:45.152Z,99.07
2023-02-04T13:26:46.761Z,98.80
2023-02-04T13:31:49.569Z,98.08
2023-02-04T13:36:51.410Z,97.39
2023-02-04T13:41:53.178Z,98.08
2023-02-04T13:46:54.814Z,96.51
2023-02-04T13:51:56.427Z,97.36
2023-02-04T13:56:58.014Z,96.44
2023-02-04T14:01:59.817Z,96.33
2023-02-04T14:07:01.504Z,95.46
2023-02-04T14:12:03.170Z,95.57
2023-02-04T14:17:04.887Z,97.21
2023-02-04T14:22:07.760Z,97.78
2023-02-04T14:27:10.530Z,97.36
2023-02-04T14:32:12.170Z,98.27
2023-02-04T14:37:13.945Z,98.90
2023-02-04T14:42:15.552Z,98.55
2023-02-04T14:47:17.116Z,97.56
2023-02-04T14:52:18.756Z,98.00
2023-02-04T14:57:21.586Z,97.90
2023-02-04T15:02:24.728Z,97.41
2023-02-04T15:07:26.644Z,96.66
2023-02-04T15:12:28.248Z,96.75
2023-02-04T15:17:30.080Z,96.92
2023-02-04T15:22:31.902Z,96.94
2023-02-04T15:27:33.717Z,96.98
2023-02-04T15:32:35.522Z,96.13
2023-02-04T15:37:37.114Z,96.01
2023-02-04T15:42:38.685Z,96.32
2023-02-04T15:47:40.285Z,96.38
2023-02-04T15:52:42.036Z,96.81
2023-02-04T15:57:43.607Z,97.21
2023-02-04T16:02:46.047Z,97.90
2023-02-04T16:07:48.101Z,98.17
2023-02-04T16:12:51.315Z,97.56
2023-02-04T16:17:55.516Z,98.09
2023-02-04T16:22:57.178Z,97.91
2023-02-04T16:27:58.780Z,98.75
2023-02-04T16:33:00.403Z,98.46
2023-02-04T16:38:01.973Z,97.54
2023-02-04T16:43:05.020Z,98.74
2023-02-04T16:48:06.619Z,97.76
2023-02-04T16:53:10.562Z,97.59
2023-02-04T16:58:13.071Z,97.88
2023-02-04T17:03:14.995Z,97.70
2023-02-04T17:08:17.441Z,98.47
2023-02-04T17:13:19.836Z,97.61
2023-02-04T17:18:21.523Z,97.32
2023-02-04T17:23:23.296Z,97.06
2023-02-04T17:28:26.197Z,97.15
2023-02-04T17:33:28.939Z,97.63
2023-02-04T17:38:31.644Z,98.09
2023-02-04T17:43:34.557Z,97.87
2023-02-04T17:48:36.611Z,98.23
2023-02-04T17:53:40.513Z,97.87
2023-02-04T17:58:42.770Z,98.49
2023-02-04T18:03:46.460Z,97.92
2023-02-04T18:08:49.996Z,98.39
2023-02-04T18:13:52.836Z,98.85
2023-02-04T18:18:57.804Z,98.08
2023-02-04T18:24:07.078Z,98.88
2023-02-04T18:29:36.346Z,98.40
2023-02-04T18:34:44.954Z,99.98
2023-02-04T18:39:46.710Z,99.03
2023-02-04T18:44:48.845Z,98.83
2023-02-04T18:49:50.532Z,99.12
2023-02-04T18:54:54.531Z,99.58
2023-02-04T19:00:08.673Z,99.85
2023-02-04T19:05:32.094Z,99.44
2023-02-04T19:10:37.380Z,100.00
2023-02-04T19:15:39.774Z,100.00
2023-02-04T19:20:41.562Z,100.00
2023-02-04T19:25:48.442Z,100.00
2023-02-04T19:30:50.950Z,100.00
2023-02-04T19:35:52.815Z,100.00
2023-02-04T19:40:54.617Z,100.00
2023-02-04T19:45:56.291Z,100.00
2023-02-04T19:50:58.700Z,100.00
2023-02-04T19:56:00.355Z,100.00
2023-02-04T20:01:04.937Z,100.00
2023-02-04T20:06:09.407Z,100.00
2023-02-04T20:11:29.744Z,100.00
2023-02-04T20:16:49.896Z,100.00
2023-02-04T20:22:17.326Z,100.00
2023-02-04T20:27:25.530Z,100.00
2023-02-04T20:32:30.063Z,100.00
2023-02-04T20:37:31.753Z,100.00
2023-02-04T20:42:40.778Z,100.00
2023-02-04T20:47:42.452Z,100.00
2023-02-04T20:52:45.558Z,100.00
2023-02-04T20:57:48.179Z,100.00
2023-02-04T21:02:49.834Z,100.00
2023-02-04T21:07:57.828Z,100.00
2023-02-04T21:13:01.356Z,100.00
2023-02-04T21:18:03.128Z,100.00
2023-02-04T21:23:05.212Z,100.00
2023-02-04T21:28:15.318Z,100.00
2023-02-04T21:33:17.308Z,100.00
2023-02-04T21:38:19.036Z,100.00
2023-02-04T21:43:20.697Z,100.00
2023-02-04T21:48:23.243Z,100.00
2023-02-04T21:53:25.019Z,100.00
2023-02-04T21:58:26.847Z,100.00
2023-02-04T22:03:28.604Z,100.00
2023-02-04T22:08:30.294Z,100.00
2023-02-04T22:13:31.876Z,100.00
2023-02-04T22:18:33.550Z,100.00
2023-02-04T22:23:35.157Z,100.00
2023-02-04T22:28:36.789Z,100.00
2023-02-04T22:33:38.452Z,100.00
2023-02-04T22:38:40.339Z,100.00
2023-02-04T22:43:42.041Z,100.00
2023-02-04T22:48:43.679Z,100.00
2023-02-04T22:53:45.295Z,100.00
2023-02-04T22:58:46.972Z,100.00
2023-02-04T23:03:49.239Z,100.00
2023-02-04T23:08:53.276Z,100.00
2023-02-04T23:13:55.822Z,100.00
2023-02-04T23:18:57.649Z,100.00
2023-02-04T23:24:00.622Z,100.00
2023-02-04T23:29:02.847Z,100.00
2023-02-04T23:34:04.503Z,100.00
2023-02-04T23:39:06.239Z,100.00
2023-02-04T23:44:07.863Z,100.00
2023-02-04T23:49:10.007Z,100.00
2023-02-04T23:54:12.088Z,100.00
2023-02-04T23:59:13.739Z,100.00
